createdAt,value
2022-11-16T00:01:05.868Z,5.53
2022-11-16T00:03:33.481Z,5.40
2022-11-16T00:06:02.669Z,4.97
2022-11-16T00:08:31.366Z,4.83
2022-11-16T00:11:09.760Z,4.80
2022-11-16T00:13:37.273Z,5.20
2022-11-16T00:16:05.228Z,5.23
2022-11-16T00:18:32.383Z,5.20
2022-11-16T00:20:59.262Z,5.17
2022-11-16T00:23:25.726Z,5.00
2022-11-16T00:25:53.206Z,5.17
2022-11-16T00:28:19.996Z,5.73
2022-11-16T00:30:46.490Z,5.30
2022-11-16T00:33:16.328Z,5.40
2022-11-16T00:35:42.801Z,5.80
2022-11-16T00:38:09.570Z,5.13
2022-11-16T00:40:36.003Z,5.30
2022-11-16T00:47:16.149Z,5.70
2022-11-16T00:49:42.624Z,5.87
2022-11-16T00:52:09.347Z,5.93
2022-11-16T00:54:36.008Z,5.60
2022-11-16T00:57:06.110Z,6.00
2022-11-16T00:59:32.794Z,5.93
2022-11-16T01:01:59.302Z,6.03
2022-11-16T01:04:25.839Z,5.53
2022-11-16T01:06:52.528Z,6.17
2022-11-16T01:09:19.037Z,5.90
2022-11-16T01:12:06.327Z,5.90
2022-11-16T01:14:32.792Z,6.00
2022-11-16T01:17:00.035Z,5.97
2022-11-16T01:19:28.763Z,6.03
2022-11-16T01:21:55.338Z,5.57
2022-11-16T01:24:23.089Z,5.90
2022-11-16T01:26:50.019Z,5.93
2022-11-16T01:29:17.836Z,5.50
2022-11-16T01:31:50.537Z,5.97
2022-11-16T01:34:17.286Z,6.30
2022-11-16T01:36:44.444Z,5.87
2022-11-16T01:39:15.999Z,6.00
2022-11-16T01:41:47.756Z,5.53
2022-11-16T01:44:14.952Z,6.17
2022-11-16T01:46:53.848Z,6.07
2022-11-16T01:49:24.168Z,6.17
2022-11-16T01:51:59.509Z,5.80
2022-11-16T01:54:29.312Z,6.43
2022-11-16T01:57:02.765Z,6.20
2022-11-16T01:59:35.090Z,6.47
2022-11-16T02:02:02.777Z,5.97
2022-11-16T02:04:30.147Z,6.30
2022-11-16T02:07:23.333Z,6.17
2022-11-16T02:10:12.266Z,6.07
2022-11-16T02:12:44.962Z,6.93
2022-11-16T02:15:27.988Z,6.27
2022-11-16T02:18:18.786Z,6.37
2022-11-16T02:21:30.094Z,6.03
2022-11-16T02:24:13.400Z,7.03
2022-11-16T02:26:55.700Z,6.83
2022-11-16T02:29:37.906Z,6.90
2022-11-16T02:32:44.019Z,7.13
2022-11-16T02:35:16.945Z,6.53
2022-11-16T02:37:48.591Z,6.73
2022-11-16T02:40:17.949Z,6.90
2022-11-16T02:42:57.979Z,7.90
2022-11-16T02:45:32.774Z,7.13
2022-11-16T02:48:13.175Z,7.50
2022-11-16T02:50:40.790Z,6.73
2022-11-16T02:53:08.907Z,7.10
2022-11-16T02:55:36.683Z,7.27
2022-11-16T02:58:09.780Z,7.23
2022-11-16T03:00:46.690Z,6.97
2022-11-16T03:03:28.551Z,7.13
2022-11-16T03:06:00.252Z,7.90
2022-11-16T03:08:38.162Z,7.33
2022-11-16T03:11:27.140Z,8.37
2022-11-16T03:13:59.288Z,8.10
2022-11-16T03:16:34.927Z,8.53
2022-11-16T03:19:07.969Z,8.30
2022-11-16T03:21:58.142Z,7.83
2022-11-16T03:24:25.377Z,8.60
2022-11-16T03:26:54.993Z,8.23
2022-11-16T03:29:42.534Z,8.57
2022-11-16T03:32:27.339Z,7.67
2022-11-16T03:35:03.283Z,7.70
2022-11-16T03:37:31.920Z,7.93
2022-11-16T03:40:01.879Z,7.80
2022-11-16T03:42:32.970Z,8.40
2022-11-16T03:45:00.335Z,7.63
2022-11-16T03:47:27.300Z,8.47
2022-11-16T03:49:53.801Z,9.20
2022-11-16T03:52:22.996Z,9.67
2022-11-16T03:54:50.518Z,9.70
2022-11-16T03:57:18.530Z,9.13
2022-11-16T03:59:50.555Z,8.83
2022-11-16T04:02:17.387Z,9.63
2022-11-16T04:05:03.556Z,8.90
2022-11-16T04:07:48.966Z,9.30
2022-11-16T04:10:34.253Z,9.30
2022-11-16T04:13:21.704Z,9.53
2022-11-16T04:16:06.985Z,10.07
2022-11-16T04:18:52.215Z,10.10
2022-11-16T04:21:44.152Z,10.20
2022-11-16T04:24:26.364Z,9.40
2022-11-16T04:27:19.341Z,10.40
2022-11-16T04:29:46.233Z,11.03
2022-11-16T04:32:31.562Z,11.07
2022-11-16T04:35:17.081Z,10.30
2022-11-16T04:37:52.419Z,10.67
2022-11-16T04:40:29.553Z,10.87
2022-11-16T04:42:59.026Z,11.93
2022-11-16T04:45:47.263Z,12.37
2022-11-16T04:48:17.961Z,11.90
2022-11-16T04:50:45.604Z,11.73
2022-11-16T04:53:12.843Z,12.13
2022-11-16T04:55:45.387Z,12.60
2022-11-16T04:58:13.829Z,11.90
2022-11-16T05:00:40.501Z,12.80
2022-11-16T05:03:07.896Z,12.03
2022-11-16T05:05:35.244Z,12.67
2022-11-16T05:08:01.938Z,12.37
2022-11-16T05:10:31.052Z,12.30
2022-11-16T05:12:57.687Z,12.97
2022-11-16T05:15:25.223Z,12.67
2022-11-16T05:17:55.650Z,13.10
2022-11-16T05:20:43.256Z,13.70
2022-11-16T05:23:29.815Z,14.03
2022-11-16T05:26:00.333Z,13.70
2022-11-16T05:28:29.171Z,14.60
2022-11-16T05:30:56.200Z,14.07
2022-11-16T05:33:24.094Z,14.37
2022-11-16T05:35:51.679Z,14.87
2022-11-16T05:38:19.563Z,14.90
2022-11-16T05:40:49.949Z,15.37
2022-11-16T05:43:17.431Z,16.13
2022-11-16T05:45:53.714Z,15.60
2022-11-16T05:48:20.695Z,16.03
2022-11-16T05:50:48.647Z,16.60
2022-11-16T05:53:22.151Z,16.40
2022-11-16T05:55:48.898Z,15.90
2022-11-16T05:58:16.816Z,16.40
2022-11-16T06:00:46.573Z,17.37
2022-11-16T06:03:13.530Z,17.17
2022-11-16T06:05:40.960Z,16.33
2022-11-16T06:08:09.698Z,17.83
2022-11-16T06:10:36.975Z,17.07
2022-11-16T06:13:04.280Z,17.67
2022-11-16T06:15:30.828Z,17.70
2022-11-16T06:17:57.955Z,17.97
2022-11-16T06:20:24.964Z,18.23
2022-11-16T06:22:53.008Z,17.70
2022-11-16T06:25:19.997Z,18.67
2022-11-16T06:27:46.657Z,17.50
2022-11-16T06:30:16.391Z,18.73
2022-11-16T06:32:44.729Z,19.60
2022-11-16T06:35:11.451Z,19.60
2022-11-16T06:37:38.854Z,18.87
2022-11-16T06:40:07.241Z,18.43
2022-11-16T06:42:36.768Z,18.47
2022-11-16T06:45:03.810Z,19.77
2022-11-16T06:47:36.006Z,18.87
2022-11-16T06:50:02.830Z,19.63
2022-11-16T06:52:29.995Z,19.73
2022-11-16T06:54:57.465Z,20.30
2022-11-16T06:57:23.988Z,20.10
2022-11-16T06:59:50.942Z,21.70
2022-11-16T07:02:20.415Z,20.73
2022-11-16T07:04:48.062Z,20.47
2022-11-16T07:07:18.226Z,20.60
2022-11-16T07:09:45.612Z,21.40
2022-11-16T07:12:14.152Z,20.37
2022-11-16T07:14:41.516Z,20.73
2022-11-16T07:17:09.993Z,20.90
2022-11-16T07:19:37.304Z,20.57
2022-11-16T07:22:06.737Z,19.13
2022-11-16T07:24:33.464Z,21.53
2022-11-16T07:26:59.951Z,21.50
2022-11-16T07:29:31.290Z,20.97
2022-11-16T07:32:09.909Z,21.57
2022-11-16T07:34:55.795Z,20.93
2022-11-16T07:37:24.525Z,18.70
2022-11-16T07:39:51.430Z,20.77
2022-11-16T07:42:18.049Z,20.57
2022-11-16T07:45:07.624Z,20.47
2022-11-16T07:47:39.122Z,19.73
2022-11-16T07:50:10.985Z,21.07
2022-11-16T07:52:37.937Z,21.60
2022-11-16T07:55:07.501Z,20.23
2022-11-16T07:57:35.073Z,20.00
2022-11-16T08:00:06.532Z,21.53
2022-11-16T08:02:47.592Z,20.73
2022-11-16T08:05:18.300Z,20.77
2022-11-16T08:07:46.108Z,21.77
2022-11-16T08:10:13.019Z,22.40
2022-11-16T08:12:40.269Z,21.53
2022-11-16T08:15:08.454Z,22.23
2022-11-16T08:17:34.959Z,21.97
2022-11-16T08:20:04.298Z,23.43
2022-11-16T08:22:30.788Z,23.47
2022-11-16T08:24:57.535Z,24.27
2022-11-16T08:27:25.328Z,24.47
2022-11-16T08:29:54.283Z,23.43
2022-11-16T08:32:21.005Z,24.03
2022-11-16T08:34:48.158Z,24.60
2022-11-16T08:37:14.936Z,24.07
2022-11-16T08:39:44.064Z,23.73
2022-11-16T08:42:10.903Z,25.83
2022-11-16T08:44:38.802Z,25.97
2022-11-16T08:47:09.977Z,23.67
2022-11-16T08:49:43.983Z,25.00
2022-11-16T08:52:15.232Z,23.87
2022-11-16T08:54:42.975Z,25.00
2022-11-16T08:57:11.100Z,26.13
2022-11-16T08:59:39.354Z,25.60
2022-11-16T09:02:10.717Z,25.57
2022-11-16T09:04:37.545Z,26.47
2022-11-16T09:07:04.391Z,25.37
2022-11-16T09:09:30.953Z,28.27
2022-11-16T09:11:57.453Z,27.40
2022-11-16T09:14:23.927Z,27.70
2022-11-16T09:16:50.594Z,27.37
2022-11-16T09:19:17.651Z,27.47
2022-11-16T09:21:45.684Z,26.73
2022-11-16T09:24:12.206Z,27.63
2022-11-16T09:26:38.664Z,28.40
2022-11-16T09:29:05.164Z,29.27
2022-11-16T09:31:34.659Z,28.57
2022-11-16T09:34:01.298Z,28.50
2022-11-16T09:36:28.719Z,28.33
2022-11-16T09:39:29.518Z,28.97
2022-11-16T09:42:00.140Z,30.13
2022-11-16T09:44:53.373Z,29.10
2022-11-16T09:47:22.278Z,29.23
2022-11-16T09:49:59.895Z,29.20
2022-11-16T09:52:41.382Z,29.77
2022-11-16T09:55:36.954Z,30.70
2022-11-16T09:58:16.343Z,30.33
2022-11-16T10:00:49.988Z,30.67
2022-11-16T10:03:16.706Z,28.90
2022-11-16T10:06:11.479Z,30.20
2022-11-16T10:08:46.725Z,29.77
2022-11-16T10:11:23.960Z,30.00
2022-11-16T10:14:05.229Z,31.03
2022-11-16T10:16:47.015Z,29.73
2022-11-16T10:19:22.441Z,30.10
2022-11-16T10:21:58.026Z,30.50
2022-11-16T10:24:53.605Z,31.17
2022-11-16T10:27:32.864Z,30.50
2022-11-16T10:30:08.850Z,31.40
2022-11-16T10:32:46.268Z,30.43
2022-11-16T10:35:12.750Z,30.23
2022-11-16T10:37:47.747Z,29.27
2022-11-16T10:40:38.824Z,30.90
2022-11-16T10:43:14.742Z,29.50
2022-11-16T10:45:57.965Z,29.60
2022-11-16T10:48:49.081Z,28.30
2022-11-16T10:51:15.620Z,29.37
2022-11-16T10:53:46.338Z,29.90
2022-11-16T10:56:19.653Z,30.53
2022-11-16T10:59:10.357Z,30.40
2022-11-16T11:01:41.166Z,30.93
2022-11-16T11:04:25.260Z,30.63
2022-11-16T11:06:54.833Z,29.73
2022-11-16T11:09:28.718Z,30.23
2022-11-16T11:12:31.581Z,29.87
2022-11-16T11:14:59.890Z,30.77
2022-11-16T11:17:26.495Z,28.53
2022-11-16T11:19:58.786Z,31.20
2022-11-16T11:22:25.588Z,29.03
2022-11-16T11:24:52.921Z,30.07
2022-11-16T11:27:27.143Z,29.73
2022-11-16T11:29:58.550Z,30.47
2022-11-16T11:32:38.281Z,29.10
2022-11-16T11:35:06.646Z,29.10
2022-11-16T11:37:36.083Z,28.90
2022-11-16T11:40:10.496Z,29.20
2022-11-16T11:42:42.920Z,29.53
2022-11-16T11:45:15.402Z,27.70
2022-11-16T11:47:59.818Z,29.17
2022-11-16T11:50:38.847Z,28.10
2022-11-16T11:53:21.244Z,28.50
2022-11-16T11:55:52.320Z,28.23
2022-11-16T11:58:19.742Z,26.67
2022-11-16T12:01:05.975Z,27.30
2022-11-16T12:04:16.751Z,25.03
2022-11-16T12:07:28.289Z,25.23
2022-11-16T12:10:16.578Z,24.70
2022-11-16T12:13:03.428Z,24.80
2022-11-16T12:15:48.041Z,24.40
2022-11-16T12:18:56.557Z,25.13
2022-11-16T12:21:44.516Z,25.50
2022-11-16T12:24:24.214Z,23.13
2022-11-16T12:27:05.724Z,24.17
2022-11-16T12:29:45.012Z,24.90
2022-11-16T12:32:34.075Z,23.87
2022-11-16T12:35:22.246Z,24.77
2022-11-16T12:38:02.592Z,23.67
2022-11-16T12:40:37.898Z,23.97
2022-11-16T12:43:38.239Z,24.70
2022-11-16T12:46:43.687Z,24.33
2022-11-16T12:49:16.512Z,22.73
2022-11-16T12:51:56.206Z,23.73
2022-11-16T12:55:19.221Z,23.47
2022-11-16T12:57:58.778Z,22.73
2022-11-16T13:00:26.665Z,22.00
2022-11-16T13:03:11.773Z,22.10
2022-11-16T13:06:00.248Z,20.90
2022-11-16T13:08:56.497Z,21.90
2022-11-16T13:11:30.514Z,21.47
2022-11-16T13:14:01.295Z,20.83
2022-11-16T13:16:29.233Z,21.27
2022-11-16T13:18:56.571Z,20.73
2022-11-16T13:22:03.626Z,19.37
2022-11-16T13:24:40.653Z,17.87
2022-11-16T13:27:25.746Z,18.80
2022-11-16T13:29:58.747Z,18.90
2022-11-16T13:32:28.268Z,19.17
2022-11-16T13:34:55.575Z,19.03
2022-11-16T13:37:34.122Z,18.87
2022-11-16T13:40:02.966Z,18.27
2022-11-16T13:42:31.861Z,20.30
2022-11-16T13:45:21.529Z,19.43
2022-11-16T13:47:53.878Z,20.53
2022-11-16T13:50:33.131Z,18.40
2022-11-16T13:54:43.184Z,19.07
2022-11-16T13:56:03.170Z,17.90
2022-11-16T13:58:31.497Z,16.87
2022-11-16T14:01:17.322Z,17.93
2022-11-16T14:03:51.574Z,16.70
2022-11-16T14:06:24.280Z,17.70
2022-11-16T14:08:55.971Z,17.20
2022-11-16T14:11:39.514Z,16.97
2022-11-16T14:14:10.637Z,16.20
2022-11-16T14:16:44.813Z,16.57
2022-11-16T14:19:47.604Z,16.00
2022-11-16T14:22:44.488Z,15.73
2022-11-16T14:25:57.639Z,15.97
2022-11-16T14:28:32.959Z,17.07
2022-11-16T14:31:17.051Z,17.53
2022-11-16T14:33:49.978Z,18.27
2022-11-16T14:36:17.095Z,19.00
2022-11-16T14:38:44.836Z,19.47
2022-11-16T14:41:23.040Z,19.20
2022-11-16T14:43:53.596Z,19.23
2022-11-16T14:46:26.879Z,19.07
2022-11-16T14:48:55.942Z,18.53
2022-11-16T14:51:36.836Z,20.17
2022-11-16T14:54:16.560Z,18.87
2022-11-16T14:57:02.626Z,19.23
2022-11-16T14:59:31.124Z,18.37
2022-11-16T15:02:04.976Z,19.00
2022-11-16T15:04:31.858Z,18.47
2022-11-16T15:07:02.230Z,19.00
2022-11-16T15:09:37.709Z,19.50
2022-11-16T15:12:24.974Z,20.07
2022-11-16T15:14:54.741Z,19.73
2022-11-16T15:17:27.204Z,19.43
2022-11-16T15:19:59.238Z,19.87
2022-11-16T15:22:31.626Z,19.27
2022-11-16T15:25:00.199Z,19.23
2022-11-16T15:27:37.909Z,18.50
2022-11-16T15:30:14.595Z,19.23
2022-11-16T15:32:46.278Z,19.93
2022-11-16T15:35:19.985Z,19.33
2022-11-16T15:37:46.869Z,18.73
2022-11-16T15:40:14.537Z,18.80
2022-11-16T15:42:42.155Z,18.80
2022-11-16T15:45:24.114Z,19.73
2022-11-16T15:47:53.712Z,19.23
2022-11-16T15:50:23.483Z,18.67
2022-11-16T15:52:55.368Z,19.13
2022-11-16T15:55:23.916Z,19.07
2022-11-16T15:58:26.501Z,19.70
2022-11-16T16:00:54.481Z,19.50
2022-11-16T16:03:24.200Z,19.80
2022-11-16T16:05:51.771Z,19.90
2022-11-16T16:08:30.434Z,20.37
2022-11-16T16:11:21.420Z,22.70
2022-11-16T16:14:03.322Z,20.23
2022-11-16T16:16:39.774Z,21.03
2022-11-16T16:19:30.077Z,20.83
2022-11-16T16:21:58.556Z,19.87
2022-11-16T16:24:45.871Z,20.27
2022-11-16T16:27:25.934Z,20.77
2022-11-16T16:29:57.403Z,21.07
2022-11-16T16:32:28.615Z,21.27
2022-11-16T16:35:00.360Z,22.53
2022-11-16T16:37:29.515Z,21.83
2022-11-16T16:39:56.375Z,21.50
2022-11-16T16:42:23.381Z,21.73
2022-11-16T16:44:50.899Z,21.90
2022-11-16T16:47:20.837Z,22.83
2022-11-16T16:49:49.374Z,22.93
2022-11-16T16:52:16.705Z,22.70
2022-11-16T16:54:43.752Z,22.13
2022-11-16T16:57:15.106Z,23.30
2022-11-16T16:59:42.417Z,23.37
2022-11-16T17:02:11.531Z,22.47
2022-11-16T17:04:38.157Z,23.53
2022-11-16T17:07:04.689Z,23.73
2022-11-16T17:09:31.201Z,22.13
2022-11-16T17:11:57.722Z,22.87
2022-11-16T17:14:24.597Z,24.27
2022-11-16T17:16:52.205Z,23.17
2022-11-16T17:19:20.047Z,23.97
2022-11-16T17:21:46.782Z,24.20
2022-11-16T17:24:13.389Z,21.80
2022-11-16T17:26:40.792Z,22.63
2022-11-16T17:29:07.238Z,22.23
2022-11-16T17:31:33.747Z,22.80
2022-11-16T17:34:00.253Z,23.83
2022-11-16T17:36:27.327Z,23.50
2022-11-16T17:38:53.824Z,23.77
2022-11-16T17:41:25.548Z,23.23
2022-11-16T17:43:53.655Z,22.50
2022-11-16T17:46:22.376Z,23.23
2022-11-16T17:48:49.935Z,22.17
2022-11-16T17:51:19.405Z,22.47
2022-11-16T17:53:46.381Z,22.30
2022-11-16T17:56:15.595Z,22.13
2022-11-16T17:58:42.478Z,22.53
2022-11-16T18:01:09.136Z,22.13
2022-11-16T18:03:36.973Z,22.43
2022-11-16T18:06:13.395Z,20.13
2022-11-16T18:08:40.877Z,20.20
2022-11-16T18:11:10.395Z,20.47
2022-11-16T18:13:37.392Z,19.90
2022-11-16T18:16:18.666Z,19.23
2022-11-16T18:18:46.738Z,18.60
2022-11-16T18:21:20.332Z,19.20
2022-11-16T18:23:47.921Z,19.00
2022-11-16T18:26:17.111Z,18.83
2022-11-16T18:28:51.570Z,18.80
2022-11-16T18:31:23.681Z,17.50
2022-11-16T18:33:51.386Z,18.93
2022-11-16T18:36:19.939Z,17.97
2022-11-16T18:38:47.093Z,18.70
2022-11-16T18:41:13.680Z,19.43
2022-11-16T18:43:42.084Z,18.77
2022-11-16T18:46:09.029Z,17.90
2022-11-16T18:48:35.529Z,17.93
2022-11-16T18:51:04.278Z,16.43
2022-11-16T18:53:32.314Z,17.03
2022-11-16T18:55:59.159Z,17.33
2022-11-16T19:01:16.484Z,15.63
2022-11-16T19:03:44.116Z,16.27
2022-11-16T19:06:11.781Z,15.43
2022-11-16T19:08:41.390Z,14.73
2022-11-16T19:11:13.591Z,14.47
2022-11-16T19:13:41.435Z,13.97
2022-11-16T19:16:10.051Z,13.67
2022-11-16T19:18:37.218Z,13.00
2022-11-16T19:21:08.557Z,12.70
2022-11-16T19:23:46.431Z,12.33
2022-11-16T19:26:14.846Z,11.90
2022-11-16T19:28:47.019Z,11.10
2022-11-16T19:31:23.232Z,11.80
2022-11-16T19:34:01.958Z,10.87
2022-11-16T19:36:29.590Z,10.80
2022-11-16T19:38:56.261Z,10.77
2022-11-16T19:41:23.998Z,10.17
2022-11-16T19:43:59.802Z,9.87
2022-11-16T19:46:28.334Z,9.07
2022-11-16T19:48:56.060Z,9.43
2022-11-16T19:51:27.891Z,9.07
2022-11-16T19:53:54.978Z,8.70
2022-11-16T19:56:23.252Z,8.33
2022-11-16T19:58:50.481Z,8.93
2022-11-16T20:01:18.629Z,8.00
2022-11-16T20:03:46.285Z,8.60
2022-11-16T20:06:23.872Z,8.53
2022-11-16T20:08:52.651Z,8.57
2022-11-16T20:11:21.437Z,7.87
2022-11-16T20:13:49.132Z,7.93
2022-11-16T20:16:16.643Z,7.73
2022-11-16T20:18:43.824Z,7.90
2022-11-16T20:21:18.541Z,8.03
2022-11-16T20:23:45.547Z,7.47
2022-11-16T20:26:13.456Z,7.53
2022-11-16T20:28:42.627Z,7.40
2022-11-16T20:31:14.827Z,7.10
2022-11-16T20:33:41.762Z,7.30
2022-11-16T20:36:11.484Z,6.90
2022-11-16T20:38:39.434Z,7.30
2022-11-16T20:41:10.182Z,7.00
2022-11-16T20:43:39.197Z,7.00
2022-11-16T20:46:10.530Z,6.93
2022-11-16T20:48:38.162Z,7.00
2022-11-16T20:51:06.032Z,6.40
2022-11-16T20:53:33.382Z,6.77
2022-11-16T20:56:03.549Z,6.50
2022-11-16T20:58:31.096Z,6.33
2022-11-16T21:01:10.503Z,6.03
2022-11-16T21:03:37.398Z,6.30
2022-11-16T21:06:08.418Z,6.50
2022-11-16T21:08:36.810Z,7.30
2022-11-16T21:11:10.158Z,7.30
2022-11-16T21:13:55.428Z,7.13
2022-11-16T21:16:22.000Z,7.43
2022-11-16T21:18:48.587Z,6.73
2022-11-16T21:21:15.154Z,7.57
2022-11-16T21:23:44.928Z,7.50
2022-11-16T21:26:13.364Z,7.50
2022-11-16T21:28:40.112Z,7.90
2022-11-16T21:31:10.178Z,8.03
2022-11-16T21:33:37.420Z,7.17
2022-11-16T21:36:10.013Z,8.30
2022-11-16T21:38:37.088Z,7.33
2022-11-16T21:41:06.385Z,7.20
2022-11-16T21:43:36.033Z,7.97
2022-11-16T21:46:06.791Z,7.67
2022-11-16T21:48:34.692Z,8.17
2022-11-16T21:51:03.844Z,7.77
2022-11-16T21:53:31.057Z,8.10
2022-11-16T21:55:57.963Z,7.80
2022-11-16T21:58:25.092Z,7.57
2022-11-16T22:00:56.297Z,8.13
2022-11-16T22:03:24.641Z,8.03
2022-11-16T22:06:32.007Z,8.23
2022-11-16T22:08:58.780Z,8.17
2022-11-16T22:11:25.579Z,8.50
2022-11-16T22:13:52.169Z,8.60
2022-11-16T22:16:20.907Z,8.27
2022-11-16T22:18:47.508Z,7.50
2022-11-16T22:21:13.977Z,7.33
2022-11-16T22:23:40.822Z,7.50
2022-11-16T22:26:10.031Z,7.17
2022-11-16T22:28:37.587Z,6.57
2022-11-16T22:31:12.298Z,6.50
2022-11-16T22:33:39.462Z,7.03
2022-11-16T22:36:10.388Z,7.43
2022-11-16T22:38:37.263Z,7.23
2022-11-16T22:41:04.201Z,6.77
2022-11-16T22:43:31.622Z,7.20
2022-11-16T22:46:02.928Z,6.90
2022-11-16T22:48:35.240Z,6.93
2022-11-16T22:51:06.731Z,7.63
2022-11-16T22:53:34.645Z,7.83
2022-11-16T22:56:06.119Z,7.10
2022-11-16T22:58:32.747Z,8.43
2022-11-16T23:00:59.137Z,8.03
2022-11-16T23:03:25.627Z,7.73
2022-11-16T23:05:52.117Z,8.23
2022-11-16T23:08:19.142Z,8.17
2022-11-16T23:11:05.968Z,8.20
2022-11-16T23:13:50.736Z,8.13
2022-11-16T23:16:17.564Z,7.87
2022-11-16T23:18:44.081Z,8.13
2022-11-16T23:21:29.030Z,7.53
2022-11-16T23:24:24.195Z,8.00
2022-11-16T23:27:09.286Z,8.20
2022-11-16T23:29:35.740Z,8.63
2022-11-16T23:32:02.204Z,8.63
2022-11-16T23:34:28.684Z,8.30
2022-11-16T23:36:55.140Z,8.10
2022-11-16T23:39:21.693Z,8.80
2022-11-16T23:42:07.009Z,8.30
2022-11-16T23:44:33.540Z,8.30
2022-11-16T23:46:59.972Z,8.87
2022-11-16T23:49:26.524Z,8.80
2022-11-16T23:51:53.028Z,8.73
2022-11-16T23:54:19.844Z,9.30
2022-11-16T23:56:46.355Z,9.17
2022-11-16T23:59:12.883Z,9.30
